Worcester, New York
Current Conditions -  °F | °C
As of 3:55 PM on Tuesday 25 Nov 2014 (Local Time) from KNY0 Reporting Station
Clear Clear  
Wind Chill: 38°   Ceiling: Unl
Heat Index: 45°   Visibility: 10mi
Dew Point: 24°   Wind: 13mph
Humidity: 44%   Direction: 260°W
Pressure: 29.93"   Gusts: 18mph
Location:  42.59°N, 74.75°W
Report Text: KNY0 252055Z AUTO 26011G16KT 10SM CLR 07/M04 A2993 RMK AO2 T00701045
Loading
Personal Weather Stations






























Interactive Weather Map New forecast layout! Learn more

10-Day Weather Forecast

Advertisements
Track Severe Weather on mobile